Main page
METAR-TAF:

METAR-TAF

Airports :

Prague, Czech Republic

Václav Havel Airport Prague

latitude: 50-06N, longitude: 014-15E, elevation: 365 m

Current weather observation

The report was made 25 minutes ago, at 05:00 UTC
Calm wind
Temperature 0°C
Humidity 93%
Pressure 1023 hPa
Visibility 10 km or more
no clouds below 1500 m and no cumulonimbus

METAR: LKPR 260500Z 00000KT CAVOK 00/M01 Q1023 NOSIG

Time: 07:25 (05:25 UTC)

Forecast

The report was made 6 hours and 25 minutes ago, at 23:00 UTC
Forecast valid from 26 at 00 UTC to 27 at 06 UTC
Wind 8 kt from the North
Visibility 10 km or more
no clouds below 1500 m and no cumulonimbus
Becoming
from 26 at 06 UTC to 26 at 09 UTC
Wind 12 kt from the East
Becoming
from 26 at 18 UTC to 26 at 20 UTC
Wind 4 kt from the Southeast
Temporary
from 27 at 02 UTC to 27 at 06 UTC
Visibility: 3000 m
Shallow fog

TAF: LKPR 252300Z 2600/2706 36008KT CAVOK BECMG 2606/2609 08012KT BECMG 2618/2620 13004KT TEMPO 2702/2706 3000 MIFG NSC

Weather observations and forecasts of more than 4000 airports (METAR and TAF reports).

The available stations are represented by yellow and red dots on the map.

Hover mouse over dot to see the name of the station.

Then click to see weather observations and forecasts.

To change the map : click on the green buttons with a black cross to zoom in, on the green button with a dash to zoom out, or on the green arrows for adjacent maps.


METAR-TAF: